Time;durP1;ratioP1;P1;durP2;ratioP2;P2;SDS_P1;SDS_P2;PMS_P1;PMS_P2;Temp;Humidity;BMP_temperature;BMP_pressure;BME280_temperature;BME280_humidity;BME280_pressure;Samples;Min_cycle;Max_cycle;Signal;HPM_P1;HPM_P2
2023/04/01 00:02:06;;;;;;;;;;;;;;;10.38;100.00;96547.66;5113421;28;19931;-66
2023/04/01 00:04:33;;;;;;;;;;;;;;;10.42;100.00;96540.66;5095735;28;19966;-67
2023/04/01 00:07:00;;;;;;;;;;;;;;;10.36;100.00;96547.19;5113418;28;20396;-67
2023/04/01 00:09:26;;;;;;;;;;;;;;;10.43;100.00;96539.56;5114123;28;19995;-66
2023/04/01 00:11:52;;;;;;;;;;;;;;;10.40;100.00;96542.81;5113602;28;19963;-66
2023/04/01 00:14:19;;;;;;;;;;;;;;;10.42;100.00;96537.19;5112763;28;19924;-65
2023/04/01 00:16:45;;;;;;;;;;;;;;;10.38;100.00;96530.84;5113458;28;19991;-66
2023/04/01 00:19:13;;;;;;;;;;;;;;;10.46;100.00;96543.53;5113363;28;19924;-66
2023/04/01 00:21:40;;;;;;;;;;;;;;;10.39;100.00;96535.91;5113549;28;19949;-65
2023/04/01 00:24:06;;;;;;;;;;;;;;;10.43;100.00;96531.53;5113503;28;19924;-67
2023/04/01 00:26:33;;;;;;;;;;;;;;;10.36;100.00;96533.84;5111689;28;19930;-66
2023/04/01 00:28:59;;;;;;;;;;;;;;;10.45;100.00;96534.72;5122891;28;19991;-66
2023/04/01 00:31:25;;;;;;;;;;;;;;;10.42;100.00;96535.31;5113871;28;19959;-66
2023/04/01 00:33:52;;;;;;;;;;;;;;;10.29;100.00;96536.88;5123889;28;19924;-65
2023/04/01 00:36:21;;;;;;;;;;;;;;;10.37;100.00;96542.63;5125401;28;19934;-65
2023/04/01 00:38:48;;;;;;;;;;;;;;;10.35;100.00;96540.25;5124122;28;19927;-65
2023/04/01 00:41:15;;;;;;;;;;;;;;;10.36;100.00;96536.50;5121876;28;19999;-65
2023/04/01 00:43:42;;;;;;;;;;;;;;;10.36;100.00;96531.16;5122040;28;19920;-66
2023/04/01 00:46:08;;;;;;;;;;;;;;;10.28;100.00;96529.94;5125339;28;19962;-66
2023/04/01 00:48:37;;;;;;;;;;;;;;;10.23;100.00;96532.72;5125121;28;19924;-65
2023/04/01 00:51:05;;;;;;;;;;;;;;;10.42;100.00;96523.84;5121702;28;19987;-65
2023/04/01 00:53:34;;;;;;;;;;;;;;;10.39;100.00;96525.25;5121422;28;19935;-65
2023/04/01 00:56:02;;;;;;;;;;;;;;;10.41;100.00;96527.59;5124491;28;19928;-65
2023/04/01 00:58:30;;;;;;;;;;;;;;;10.26;100.00;96531.34;5107324;28;19945;-65
2023/04/01 01:00:58;;;;;;;;;;;;;;;10.28;100.00;96532.63;5114061;28;19963;-66
2023/04/01 01:03:24;;;;;;;;;;;;;;;10.21;100.00;96518.88;5121035;28;19983;-66
2023/04/01 01:06:03;;;;;;;;;;;;;;;10.24;100.00;96534.28;5164380;22;19925;-71
2023/04/01 01:08:37;;;;;;;;;;;;;;;10.25;100.00;96522.53;5059399;28;19925;-69
2023/04/01 01:11:05;;;;;;;;;;;;;;;10.19;100.00;96521.03;5062564;28;19967;-67
2023/04/01 01:13:36;;;;;;;;;;;;;;;10.27;100.00;96523.03;5062771;28;19925;-68
2023/04/01 01:16:07;;;;;;;;;;;;;;;10.28;100.00;96518.47;5059216;28;19956;-70
2023/04/01 01:18:36;;;;;;;;;;;;;;;10.25;100.00;96522.53;5059265;28;19989;-69
2023/04/01 01:21:19;;;;;;;;;;;;;;;10.17;100.00;96523.22;5062230;28;19960;-67
2023/04/01 01:24:05;;;;;;;;;;;;;;;10.04;100.00;96523.16;5061458;28;20265;-68
2023/04/01 01:26:50;;;;;;;;;;;;;;;10.12;100.00;96525.94;5058148;28;19925;-68
2023/04/01 01:29:28;;;;;;;;;;;;;;;10.08;100.00;96519.63;5059717;28;20265;-68
2023/04/01 01:32:00;;;;;;;;;;;;;;;10.18;100.00;96524.03;5063643;28;19980;-69
2023/04/01 01:34:29;;;;;;;;;;;;;;;10.17;100.00;96525.09;5052286;28;19920;-69
2023/04/01 01:36:59;;;;;;;;;;;;;;;10.11;100.00;96513.69;5068015;28;19959;-70
2023/04/01 01:39:27;;;;;;;;;;;;;;;10.04;100.00;96507.94;5063161;28;19926;-68
2023/04/01 01:41:54;;;;;;;;;;;;;;;10.01;100.00;96513.88;5060913;28;19925;-68
2023/04/01 01:44:22;;;;;;;;;;;;;;;10.12;100.00;96515.25;5044530;28;20027;-68
2023/04/01 01:46:49;;;;;;;;;;;;;;;10.06;100.00;96507.63;5060813;28;19929;-69
2023/04/01 01:49:16;;;;;;;;;;;;;;;10.11;100.00;96519.03;5058408;28;19985;-68
2023/04/01 01:51:42;;;;;;;;;;;;;;;10.15;100.00;96517.38;5058668;28;19947;-68
2023/04/01 01:54:14;;;;;;;;;;;;;;;10.18;100.00;96519.47;5044277;28;19929;-69
2023/04/01 01:56:42;;;;;;;;;;;;;;;10.21;100.00;96518.09;5061738;28;19932;-68
2023/04/01 01:59:10;;;;;;;;;;;;;;;10.24;100.00;96512.19;5040649;28;19925;-70
2023/04/01 02:01:38;;;;;;;;;;;;;;;10.26;100.00;96518.00;5058212;28;19925;-69
2023/04/01 02:04:05;;;;;;;;;;;;;;;10.22;100.00;96519.66;5049816;28;19936;-71
2023/04/01 02:06:34;;;;;;;;;;;;;;;10.24;100.00;96514.84;5049819;28;19937;-68
2023/04/01 02:09:02;;;;;;;;;;;;;;;10.18;100.00;96516.03;5049557;28;19980;-67
2023/04/01 02:11:32;;;;;;;;;;;;;;;10.04;100.00;96512.47;5040411;28;20469;-68
2023/04/01 02:14:02;;;;;;;;;;;;;;;10.19;100.00;96514.91;5049831;28;19928;-67
2023/04/01 02:16:30;;;;;;;;;;;;;;;10.16;100.00;96510.97;5049896;28;20472;-69
2023/04/01 02:18:57;;;;;;;;;;;;;;;9.95;100.00;96515.03;5057888;28;19920;-71
2023/04/01 02:21:25;;;;;;;;;;;;;;;10.11;100.00;96515.56;5057982;28;19964;-68
2023/04/01 02:23:53;;;;;;;;;;;;;;;10.18;100.00;96514.13;5059460;28;20500;-68
2023/04/01 02:26:19;;;;;;;;;;;;;;;10.21;100.00;96512.75;5061446;28;20000;-69
2023/04/01 02:28:49;;;;;;;;;;;;;;;9.90;100.00;96507.13;5060564;28;19921;-69
2023/04/01 02:31:15;;;;;;;;;;;;;;;10.11;100.00;96515.56;5058089;28;19935;-68
2023/04/01 02:33:42;;;;;;;;;;;;;;;9.98;100.00;96519.78;5058310;28;19964;-69
2023/04/01 02:36:11;;;;;;;;;;;;;;;10.10;100.00;96520.13;5061382;28;19968;-69
2023/04/01 02:38:38;;;;;;;;;;;;;;;10.01;100.00;96513.06;5061045;28;19992;-67
2023/04/01 02:41:05;;;;;;;;;;;;;;;9.96;100.00;96521.16;5057926;28;19925;-69
2023/04/01 02:43:31;;;;;;;;;;;;;;;10.05;100.00;96522.09;5057922;28;19925;-69
2023/04/01 02:45:59;;;;;;;;;;;;;;;10.08;100.00;96529.50;5060798;28;19996;-69
2023/04/01 02:48:27;;;;;;;;;;;;;;;10.01;100.00;96529.06;5061137;28;20222;-68
2023/04/01 02:50:53;;;;;;;;;;;;;;;10.03;100.00;96537.56;5059023;28;19925;-68
2023/04/01 02:53:20;;;;;;;;;;;;;;;10.03;100.00;96532.22;5057954;28;20000;-67
2023/04/01 02:55:46;;;;;;;;;;;;;;;10.00;100.00;96538.16;5058679;28;19988;-68
2023/04/01 02:58:13;;;;;;;;;;;;;;;9.93;100.00;96546.56;5061062;28;20016;-69
2023/04/01 03:00:39;;;;;;;;;;;;;;;9.96;100.00;96558.50;5061012;28;19992;-69
2023/04/01 03:03:07;;;;;;;;;;;;;;;9.93;100.00;96553.75;5048869;28;19948;-69
2023/04/01 03:05:33;;;;;;;;;;;;;;;9.92;100.00;96552.16;5048935;28;19933;-67
2023/04/01 03:07:59;;;;;;;;;;;;;;;9.90;100.00;96559.66;5049110;28;19933;-68
2023/04/01 03:10:26;;;;;;;;;;;;;;;10.01;100.00;96559.22;5049266;28;19967;-67
2023/04/01 03:12:52;;;;;;;;;;;;;;;10.03;100.00;96553.56;5049224;28;19967;-67
2023/04/01 03:15:18;;;;;;;;;;;;;;;10.04;100.00;96555.97;5049172;28;19932;-69
2023/04/01 03:17:46;;;;;;;;;;;;;;;10.01;100.00;96545.88;5049229;28;19968;-69
2023/04/01 03:20:14;;;;;;;;;;;;;;;10.08;100.00;96545.50;5048986;28;19921;-70
2023/04/01 03:22:41;;;;;;;;;;;;;;;10.04;100.00;96561.28;5049106;28;19925;-69
2023/04/01 03:25:08;;;;;;;;;;;;;;;10.06;100.00;96542.31;5060744;28;19931;-70
2023/04/01 03:27:35;;;;;;;;;;;;;;;10.02;100.00;96554.66;5060814;28;19931;-69
2023/04/01 03:30:01;;;;;;;;;;;;;;;9.86;100.00;96558.66;5060628;28;19925;-69
2023/04/01 03:32:28;;;;;;;;;;;;;;;9.89;100.00;96558.88;5043091;28;19959;-68
2023/04/01 03:34:54;;;;;;;;;;;;;;;9.84;100.00;96566.16;5058694;28;19956;-67
2023/04/01 03:37:23;;;;;;;;;;;;;;;9.82;100.00;96570.97;5057062;28;19976;-68
2023/04/01 03:39:49;;;;;;;;;;;;;;;10.01;100.00;96569.06;5058418;28;19940;-68
2023/04/01 03:42:16;;;;;;;;;;;;;;;9.92;100.00;96563.63;5060525;28;19925;-70
2023/04/01 03:44:42;;;;;;;;;;;;;;;9.97;100.00;96560.06;5060149;28;19924;-69
2023/04/01 03:47:09;;;;;;;;;;;;;;;9.75;100.00;96564.13;5056994;28;19984;-70
2023/04/01 03:49:36;;;;;;;;;;;;;;;9.86;100.00;96574.66;5041173;28;19967;-70
2023/04/01 03:52:02;;;;;;;;;;;;;;;9.95;100.00;96578.25;5064301;28;19984;-69
2023/04/01 03:54:30;;;;;;;;;;;;;;;9.92;100.00;96576.94;5064443;28;19959;-69
2023/04/01 03:56:57;;;;;;;;;;;;;;;9.97;100.00;96581.41;5044155;28;19925;-69
2023/04/01 03:59:24;;;;;;;;;;;;;;;9.72;100.00;96564.72;5060794;28;19925;-67
2023/04/01 04:01:50;;;;;;;;;;;;;;;9.74;100.00;96575.91;5062312;28;19925;-69
2023/04/01 04:04:17;;;;;;;;;;;;;;;9.67;100.00;96572.81;5063822;28;19955;-68
2023/04/01 04:06:43;;;;;;;;;;;;;;;9.66;100.00;96571.22;5063186;28;19931;-70
2023/04/01 04:09:10;;;;;;;;;;;;;;;9.76;100.00;96572.94;5060491;28;19929;-68
2023/04/01 04:11:38;;;;;;;;;;;;;;;9.76;100.00;96573.72;5060492;28;19952;-69
2023/04/01 04:14:04;;;;;;;;;;;;;;;9.73;100.00;96581.50;5063733;28;19926;-68
2023/04/01 04:16:30;;;;;;;;;;;;;;;9.61;100.00;96575.81;5063752;28;19925;-69
2023/04/01 04:18:57;;;;;;;;;;;;;;;9.77;100.00;96571.88;5061288;28;20612;-69
2023/04/01 04:21:23;;;;;;;;;;;;;;;9.81;100.00;96567.50;5060363;28;19925;-68
2023/04/01 04:23:50;;;;;;;;;;;;;;;9.74;100.00;96583.09;5043764;28;19929;-69
2023/04/01 04:26:16;;;;;;;;;;;;;;;9.75;100.00;96582.00;5063689;28;19988;-69
2023/04/01 04:28:44;;;;;;;;;;;;;;;9.82;100.00;96595.75;5063205;28;19932;-68
2023/04/01 04:31:11;;;;;;;;;;;;;;;9.75;100.00;96582.81;5060220;28;19996;-67
2023/04/01 04:33:37;;;;;;;;;;;;;;;9.51;100.00;96584.75;5060134;28;19936;-70
2023/04/01 04:36:04;;;;;;;;;;;;;;;9.59;100.00;96588.66;5045430;28;19984;-69
2023/04/01 04:38:31;;;;;;;;;;;;;;;9.59;100.00;96596.66;5063517;28;19967;-67
2023/04/01 04:40:57;;;;;;;;;;;;;;;9.74;100.00;96583.91;5060909;28;20015;-67
2023/04/01 04:43:23;;;;;;;;;;;;;;;9.77;100.00;96593.19;5059801;28;19925;-67
2023/04/01 04:45:51;;;;;;;;;;;;;;;9.76;100.00;96587.06;5061062;28;19956;-68
2023/04/01 04:48:19;;;;;;;;;;;;;;;9.70;100.00;96585.56;5063287;28;19944;-68
2023/04/01 04:50:46;;;;;;;;;;;;;;;9.75;100.00;96598.78;5062363;28;19927;-69
2023/04/01 04:53:13;;;;;;;;;;;;;;;9.70;100.00;96590.88;5059627;28;20025;-67
2023/04/01 04:55:43;;;;;;;;;;;;;;;9.60;100.00;96584.91;5059549;28;20017;-68
2023/04/01 04:58:10;;;;;;;;;;;;;;;9.47;100.00;96590.97;5051196;28;19989;-68
2023/04/01 05:00:36;;;;;;;;;;;;;;;9.61;100.00;96586.50;5059173;28;19948;-69
2023/04/01 05:03:04;;;;;;;;;;;;;;;9.47;100.00;96597.06;5059607;28;19971;-69
2023/04/01 05:05:30;;;;;;;;;;;;;;;9.48;100.00;96595.19;5059321;28;19936;-68
2023/04/01 05:07:57;;;;;;;;;;;;;;;9.58;100.00;96600.38;5061692;28;20010;-69
2023/04/01 05:10:23;;;;;;;;;;;;;;;9.63;100.00;96594.97;5044960;28;20029;-68
2023/04/01 05:12:49;;;;;;;;;;;;;;;9.52;100.00;96591.69;5061518;28;19932;-70
2023/04/01 05:15:16;;;;;;;;;;;;;;;9.52;100.00;96604.22;5041796;28;19925;-70
2023/04/01 05:17:42;;;;;;;;;;;;;;;9.57;100.00;96604.13;5041993;28;19932;-68
2023/04/01 05:20:12;;;;;;;;;;;;;;;9.42;100.00;96610.47;5062880;28;19925;-68
2023/04/01 05:22:38;;;;;;;;;;;;;;;9.56;100.00;96618.56;5062643;28;19925;-71
2023/04/01 05:25:05;;;;;;;;;;;;;;;9.41;100.00;96608.88;5041495;28;19951;-68
2023/04/01 05:27:32;;;;;;;;;;;;;;;9.43;100.00;96612.06;5059191;28;19971;-68
2023/04/01 05:29:58;;;;;;;;;;;;;;;9.50;100.00;96615.13;5061749;28;19929;-68
2023/04/01 05:32:25;;;;;;;;;;;;;;;9.37;100.00;96620.41;5062797;28;19971;-70
2023/04/01 05:34:51;;;;;;;;;;;;;;;9.42;100.00;96613.13;5061380;28;19963;-69
2023/04/01 05:37:19;;;;;;;;;;;;;;;9.41;100.00;96627.53;5059271;28;19932;-70
2023/04/01 05:39:46;;;;;;;;;;;;;;;9.47;100.00;96620.28;5058886;28;19948;-70
2023/04/01 05:42:12;;;;;;;;;;;;;;;9.37;100.00;96617.72;5062605;28;19925;-69
2023/04/01 05:44:38;;;;;;;;;;;;;;;9.34;100.00;96615.63;5062199;28;19943;-68
2023/04/01 05:47:05;;;;;;;;;;;;;;;9.32;100.00;96612.44;5058795;28;19932;-69
2023/04/01 05:49:32;;;;;;;;;;;;;;;9.29;100.00;96616.47;5058805;28;19960;-68
2023/04/01 05:51:58;;;;;;;;;;;;;;;9.47;100.00;96617.59;5061173;28;19988;-69
2023/04/01 05:54:26;;;;;;;;;;;;;;;9.40;100.00;96620.63;5062209;28;19988;-68
2023/04/01 05:56:52;;;;;;;;;;;;;;;9.44;100.00;96624.28;5060391;28;19948;-68
2023/04/01 05:59:19;;;;;;;;;;;;;;;9.49;100.00;96620.78;5058633;28;19925;-69
2023/04/01 06:01:45;;;;;;;;;;;;;;;9.37;100.00;96618.53;5059417;28;19926;-68
2023/04/01 06:04:14;;;;;;;;;;;;;;;9.45;100.00;96628.53;5062069;28;19925;-69
2023/04/01 06:06:40;;;;;;;;;;;;;;;9.45;100.00;96627.75;5062215;28;19925;-68
2023/04/01 06:09:11;;;;;;;;;;;;;;;9.33;100.00;96628.16;5059505;28;19921;-68
2023/04/01 06:11:45;;;;;;;;;;;;;;;9.37;100.00;96618.53;5062936;28;19927;-68
2023/04/01 06:14:19;;;;;;;;;;;;;;;9.47;100.00;96631.69;5066805;28;19963;-68
2023/04/01 06:16:52;;;;;;;;;;;;;;;9.38;100.00;96622.75;5067844;28;19948;-69
2023/04/01 06:19:23;;;;;;;;;;;;;;;9.47;100.00;96629.03;5070697;28;19908;-68
2023/04/01 06:21:58;;;;;;;;;;;;;;;9.47;100.00;96621.03;5069112;28;19913;-67
2023/04/01 06:24:38;;;;;;;;;;;;;;;9.51;100.00;96615.94;5066607;28;19936;-70
2023/04/01 06:27:13;;;;;;;;;;;;;;;9.52;100.00;96621.00;5069657;28;19960;-68
2023/04/01 06:29:49;;;;;;;;;;;;;;;9.55;100.00;96628.41;5068587;28;19984;-68
2023/04/01 06:32:36;;;;;;;;;;;;;;;9.45;100.00;96617.09;5064844;28;19921;-68
2023/04/01 06:35:23;;;;;;;;;;;;;;;9.51;100.00;96626.59;5057802;28;19980;-68
2023/04/01 06:38:07;;;;;;;;;;;;;;;9.47;100.00;96633.59;5057347;28;19948;-68
2023/04/01 06:40:51;;;;;;;;;;;;;;;9.41;100.00;96632.06;5060150;28;19987;-67
2023/04/01 06:43:22;;;;;;;;;;;;;;;9.57;100.00;96636.91;5050086;28;19972;-69
2023/04/01 06:45:53;;;;;;;;;;;;;;;9.58;100.00;96640.38;5049684;28;19947;-69
2023/04/01 06:48:43;;;;;;;;;;;;;;;9.59;100.00;96629.41;5049543;28;19929;-68
2023/04/01 06:51:16;;;;;;;;;;;;;;;9.70;100.00;96635.41;5042529;28;19932;-67
2023/04/01 06:53:47;;;;;;;;;;;;;;;9.73;100.00;96632.16;5058052;28;19984;-69
2023/04/01 06:56:18;;;;;;;;;;;;;;;9.77;100.00;96635.84;5061092;28;19932;-68
2023/04/01 06:58:47;;;;;;;;;;;;;;;9.88;100.00;96633.81;5060475;28;19925;-71
2023/04/01 07:01:15;;;;;;;;;;;;;;;9.82;100.00;96632.28;5058012;28;19925;-72
2023/04/01 07:03:44;;;;;;;;;;;;;;;9.86;100.00;96627.97;5057870;28;19925;-68
2023/04/01 07:06:13;;;;;;;;;;;;;;;9.85;100.00;96632.50;5061076;28;19984;-68
2023/04/01 07:08:44;;;;;;;;;;;;;;;9.83;100.00;96623.22;5061505;28;20024;-69
2023/04/01 07:11:12;;;;;;;;;;;;;;;9.89;100.00;96622.06;5049942;28;19931;-68
2023/04/01 07:13:42;;;;;;;;;;;;;;;9.92;100.00;96622.28;5049853;28;19992;-71
2023/04/01 07:16:13;;;;;;;;;;;;;;;10.05;100.00;96628.75;5058381;28;19953;-68
2023/04/01 07:18:42;;;;;;;;;;;;;;;9.97;100.00;96624.06;5058115;28;19925;-68
2023/04/01 07:21:14;;;;;;;;;;;;;;;10.00;100.00;96634.16;5049528;28;19925;-69
2023/04/01 07:23:43;;;;;;;;;;;;;;;9.80;100.00;96629.13;5051143;28;19993;-69
2023/04/01 07:26:15;;;;;;;;;;;;;;;9.77;100.00;96617.19;5035957;28;19947;-69
2023/04/01 07:28:42;;;;;;;;;;;;;;;9.78;100.00;96632.06;5052267;28;19972;-69
2023/04/01 07:31:16;;;;;;;;;;;;;;;9.86;100.00;96617.31;5044227;28;19933;-70
2023/04/01 07:33:46;;;;;;;;;;;;;;;9.96;100.00;96623.31;5053624;28;19968;-71
2023/04/01 07:36:15;;;;;;;;;;;;;;;9.86;100.00;96620.78;5064786;28;19925;-70
2023/04/01 07:38:47;;;;;;;;;;;;;;;9.83;100.00;96620.56;5064553;28;19964;-70
2023/04/01 07:41:19;;;;;;;;;;;;;;;9.86;100.00;96622.66;5061504;28;19948;-69
2023/04/01 07:43:57;;;;;;;;;;;;;;;9.87;100.00;96624.25;5061703;28;19992;-69
2023/04/01 07:46:32;;;;;;;;;;;;;;;10.01;100.00;96620.53;5064495;28;19924;-69
2023/04/01 07:49:02;;;;;;;;;;;;;;;10.14;100.00;96619.84;5061978;28;19963;-69
2023/04/01 07:51:32;;;;;;;;;;;;;;;10.03;100.00;96622.91;5060950;28;19988;-70
2023/04/01 07:54:04;;;;;;;;;;;;;;;10.05;100.00;96618.09;5063456;28;19932;-68
2023/04/01 07:56:36;;;;;;;;;;;;;;;9.98;100.00;96623.78;5064476;28;19967;-70
2023/04/01 07:59:06;;;;;;;;;;;;;;;10.05;100.00;96621.56;5043220;28;19979;-68
2023/04/01 08:01:40;;;;;;;;;;;;;;;10.11;100.00;96630.28;5060972;28;19925;-68
2023/04/01 08:04:18;;;;;;;;;;;;;;;10.02;100.00;96619.47;5052301;28;19925;-70
2023/04/01 08:06:48;;;;;;;;;;;;;;;10.10;100.00;96629.47;5052189;28;19985;-67
2023/04/01 08:09:18;;;;;;;;;;;;;;;10.13;100.00;96622.75;5051134;28;19972;-69
2023/04/01 08:11:52;;;;;;;;;;;;;;;10.15;100.00;96623.31;5052179;28;19925;-68
2023/04/01 08:14:23;;;;;;;;;;;;;;;10.47;100.00;96604.59;5052090;28;19921;-70
2023/04/01 08:16:55;;;;;;;;;;;;;;;12.42;100.00;96621.38;5051992;28;19940;-66
2023/04/01 08:19:26;;;;;;;;;;;;;;;12.92;100.00;96622.75;5052093;28;19931;-69
2023/04/01 08:21:53;;;;;;;;;;;;;;;13.22;100.00;96615.00;5034332;28;19979;-66
2023/04/01 08:24:37;;;;;;;;;;;;;;;13.04;100.00;96613.31;5052476;28;19960;-68
2023/04/01 08:27:06;;;;;;;;;;;;;;;11.75;100.00;96612.53;5052495;28;19921;-69
2023/04/01 08:29:37;;;;;;;;;;;;;;;11.76;100.00;96617.56;5051859;28;19925;-68
2023/04/01 08:32:08;;;;;;;;;;;;;;;11.21;100.00;96616.03;5063633;28;20000;-64
2023/04/01 08:34:37;;;;;;;;;;;;;;;10.97;100.00;96599.41;5045116;28;19990;-69
2023/04/01 08:37:05;;;;;;;;;;;;;;;10.92;100.00;96616.34;5060441;28;19996;-69
2023/04/01 08:39:33;;;;;;;;;;;;;;;10.92;100.00;96604.88;5059954;28;19956;-69
2023/04/01 08:42:19;;;;;;;;;;;;;;;10.94;100.00;96610.69;5062691;28;19955;-69
2023/04/01 08:45:00;;;;;;;;;;;;;;;10.93;100.00;96612.56;5062551;28;19925;-69
2023/04/01 08:47:40;;;;;;;;;;;;;;;11.08;100.00;96606.16;5041923;28;19992;-68
2023/04/01 08:50:20;;;;;;;;;;;;;;;11.11;100.00;96605.56;5059740;28;19925;-70
2023/04/01 08:52:52;;;;;;;;;;;;;;;11.10;100.00;96595.97;5060217;28;19963;-69
2023/04/01 08:55:26;;;;;;;;;;;;;;;11.02;100.00;96607.31;5063028;28;19925;-67
2023/04/01 08:57:57;;;;;;;;;;;;;;;11.11;100.00;96595.66;5043562;28;19956;-69
2023/04/01 09:00:31;;;;;;;;;;;;;;;11.09;100.00;96594.38;5065326;28;20334;-70
2023/04/01 09:03:09;;;;;;;;;;;;;;;11.16;100.00;96613.47;5060412;28;19925;-68
2023/04/01 09:05:56;;;;;;;;;;;;;;;11.11;100.00;96601.00;5058958;28;19925;-70
2023/04/01 09:08:30;;;;;;;;;;;;;;;11.05;100.00;96601.41;5059328;28;19925;-69
2023/04/01 09:11:09;;;;;;;;;;;;;;;11.20;100.00;96601.88;5061261;28;19925;-67
2023/04/01 09:13:44;;;;;;;;;;;;;;;11.12;100.00;96599.91;5062438;28;20024;-70
2023/04/01 09:16:18;;;;;;;;;;;;;;;11.16;100.00;96582.22;5050861;28;19932;-68
2023/04/01 09:19:01;;;;;;;;;;;;;;;11.19;100.00;96599.53;5050829;28;19925;-67
2023/04/01 09:21:42;;;;;;;;;;;;;;;11.22;100.00;96607.72;5050810;28;20276;-68
2023/04/01 09:24:19;;;;;;;;;;;;;;;11.19;100.00;96604.88;5058941;28;19948;-68
2023/04/01 09:26:58;;;;;;;;;;;;;;;11.10;100.00;96598.63;5059587;28;19955;-69
2023/04/01 09:29:30;;;;;;;;;;;;;;;11.18;100.00;96595.25;5062466;28;19924;-69
2023/04/01 09:32:11;;;;;;;;;;;;;;;11.21;100.00;96608.03;5062228;28;19925;-68
2023/04/01 09:34:53;;;;;;;;;;;;;;;11.10;100.00;96598.63;5044676;28;20605;-68
2023/04/01 09:37:22;;;;;;;;;;;;;;;11.26;100.00;96602.59;5048871;28;19960;-68
2023/04/01 09:39:57;;;;;;;;;;;;;;;11.34;100.00;96596.53;5050341;28;19983;-67
2023/04/01 09:42:30;;;;;;;;;;;;;;;11.38;100.00;96602.88;5040856;28;19977;-69
2023/04/01 09:44:59;;;;;;;;;;;;;;;11.32;100.00;96601.41;5049829;28;19996;-68
2023/04/01 09:53:44;;;;;;;;;;;;;;;11.41;100.00;96607.63;5122147;27;20001;-67
2023/04/01 09:56:25;;;;;;;;;;;;;;;11.42;100.00;96601.16;5115254;28;19988;-69
2023/04/01 09:59:04;;;;;;;;;;;;;;;11.39;100.00;96607.09;5115285;28;19956;-68
2023/04/01 10:01:45;;;;;;;;;;;;;;;11.38;100.00;96611.69;5117889;28;19988;-68
2023/04/01 10:04:26;;;;;;;;;;;;;;;11.43;100.00;96607.31;5117643;28;19967;-67
2023/04/01 10:07:02;;;;;;;;;;;;;;;11.42;100.00;96611.84;5118024;28;19924;-68
2023/04/01 10:09:43;;;;;;;;;;;;;;;11.35;100.00;96585.56;5114744;28;19955;-70
2023/04/01 10:12:30;;;;;;;;;;;;;;;11.34;100.00;96602.66;5117288;28;19925;-68
2023/04/01 10:15:24;;;;;;;;;;;;;;;11.39;100.00;96594.53;5117680;28;19931;-67
2023/04/01 10:17:58;;;;;;;;;;;;;;;11.47;100.00;96593.06;5113649;28;19925;-68
2023/04/01 10:20:47;;;;;;;;;;;;;;;11.50;100.00;96592.44;5106220;28;19967;-68
2023/04/01 10:23:24;;;;;;;;;;;;;;;11.77;100.00;96587.06;5106302;28;19924;-66
2023/04/01 10:26:02;;;;;;;;;;;;;;;11.42;100.00;96584.34;5104956;28;19940;-66
2023/04/01 10:28:39;;;;;;;;;;;;;;;11.48;100.00;96585.81;5114567;28;19947;-68
2023/04/01 10:31:21;;;;;;;;;;;;;;;11.42;100.00;96587.78;5124987;28;19986;-67
2023/04/01 10:34:03;;;;;;;;;;;;;;;11.55;100.00;96586.19;5114775;28;19928;-66
2023/04/01 10:36:47;;;;;;;;;;;;;;;11.53;100.00;96596.41;5106572;28;19979;-68
2023/04/01 10:39:32;;;;;;;;;;;;;;;11.53;100.00;96586.50;5105976;28;19963;-65
2023/04/01 10:42:14;;;;;;;;;;;;;;;11.59;100.00;96593.31;5104685;28;19960;-66
2023/04/01 10:44:59;;;;;;;;;;;;;;;11.53;100.00;96585.72;5105992;28;19963;-66
2023/04/01 10:47:46;;;;;;;;;;;;;;;11.54;100.00;96581.94;5105679;28;19993;-69
2023/04/01 10:50:24;;;;;;;;;;;;;;;11.57;100.00;96587.50;5105427;28;19936;-66
2023/04/01 10:53:09;;;;;;;;;;;;;;;11.58;100.00;96577.56;5112751;28;19970;-68
2023/04/01 10:55:51;;;;;;;;;;;;;;;11.52;100.00;96582.22;5118760;28;19924;-67
2023/04/01 10:58:35;;;;;;;;;;;;;;;11.60;100.00;96578.88;5105237;28;19936;-67
2023/04/01 11:01:15;;;;;;;;;;;;;;;11.53;100.00;96580.34;5117567;28;19931;-68
2023/04/01 11:03:58;;;;;;;;;;;;;;;11.54;100.00;96574.72;5108382;28;19924;-67
2023/04/01 11:06:40;;;;;;;;;;;;;;;11.67;100.00;96592.59;5100217;28;19925;-67
2023/04/01 11:09:34;;;;;;;;;;;;;;;11.70;100.00;96573.31;5087267;28;19992;-66
2023/04/01 11:12:19;;;;;;;;;;;;;;;11.58;100.00;96578.34;5101225;28;19955;-66
2023/04/01 11:14:59;;;;;;;;;;;;;;;11.68;100.00;96564.78;5103577;28;19967;-69
2023/04/01 11:17:39;;;;;;;;;;;;;;;11.65;100.00;96573.41;5091855;28;19924;-67
2023/04/01 11:20:15;;;;;;;;;;;;;;;11.73;100.00;96563.88;5092007;28;19932;-68
2023/04/01 11:22:52;;;;;;;;;;;;;;;11.77;100.00;96565.66;5091785;28;19924;-70
2023/04/01 11:25:42;;;;;;;;;;;;;;;11.74;100.00;96560.91;5100086;28;19929;-67
2023/04/01 11:28:17;;;;;;;;;;;;;;;11.66;100.00;96558.94;5101980;28;20539;-68
2023/04/01 11:30:54;;;;;;;;;;;;;;;11.69;100.00;96570.91;5107145;28;20067;-68
2023/04/01 11:33:24;;;;;;;;;;;;;;;11.71;100.00;96577.56;5099791;28;20449;-65
2023/04/01 11:36:00;;;;;;;;;;;;;;;11.69;100.00;96573.59;5099857;28;19970;-66
2023/04/01 11:38:41;;;;;;;;;;;;;;;11.75;100.00;96602.63;5099727;28;19925;-67
2023/04/01 11:41:14;;;;;;;;;;;;;;;11.66;100.00;96596.38;5099989;28;19940;-68
2023/04/01 11:43:44;;;;;;;;;;;;;;;11.62;100.00;96603.41;5103331;28;19924;-67
2023/04/01 11:46:12;;;;;;;;;;;;;;;11.64;100.00;96603.09;5103250;28;19951;-68
2023/04/01 11:48:52;;;;;;;;;;;;;;;11.68;100.00;96607.56;5103375;28;19966;-67
2023/04/01 11:51:31;;;;;;;;;;;;;;;11.67;100.00;96611.31;5092598;28;19920;-70
2023/04/01 11:54:04;;;;;;;;;;;;;;;11.68;100.00;96612.91;5102769;28;19966;-66
2023/04/01 11:56:40;;;;;;;;;;;;;;;11.66;100.00;96622.31;5118349;28;19931;-68
2023/04/01 11:59:24;;;;;;;;;;;;;;;11.75;100.00;96617.88;5121833;28;19931;-69
2023/04/01 12:01:57;;;;;;;;;;;;;;;11.86;100.00;96611.97;5125153;27;19946;-67
2023/04/01 12:04:36;;;;;;;;;;;;;;;11.73;100.00;96612.81;5111178;28;19920;-69
2023/04/01 12:07:07;;;;;;;;;;;;;;;11.73;100.00;96620.03;5092952;28;19924;-69
2023/04/01 12:09:40;;;;;;;;;;;;;;;11.66;100.00;96620.44;5111058;28;19947;-70
2023/04/01 12:12:17;;;;;;;;;;;;;;;11.79;100.00;96616.19;5110872;28;19924;-70
2023/04/01 12:14:47;;;;;;;;;;;;;;;11.68;100.00;96615.56;5100462;28;19924;-68
2023/04/01 12:17:20;;;;;;;;;;;;;;;11.64;100.00;96613.78;5119501;28;19941;-67
2023/04/01 12:19:52;;;;;;;;;;;;;;;11.62;100.00;96614.09;5119349;28;19920;-66
2023/04/01 12:22:34;;;;;;;;;;;;;;;11.59;100.00;96616.59;5126856;28;19928;-66
2023/04/01 12:25:08;;;;;;;;;;;;;;;11.56;100.00;96620.66;5110880;28;19932;-68
2023/04/01 12:27:42;;;;;;;;;;;;;;;11.59;100.00;96619.25;5110792;28;20405;-67
2023/04/01 12:30:22;;;;;;;;;;;;;;;11.60;100.00;96618.19;5116752;27;19979;-67
2023/04/01 12:32:56;;;;;;;;;;;;;;;11.53;100.00;96623.94;5104513;28;19971;-67
2023/04/01 12:35:25;;;;;;;;;;;;;;;11.58;100.00;96631.03;5118834;28;19935;-67
2023/04/01 12:37:56;;;;;;;;;;;;;;;11.54;100.00;96617.50;5127094;28;19924;-69
2023/04/01 12:40:43;;;;;;;;;;;;;;;11.50;100.00;96629.06;5110443;28;19991;-67
2023/04/01 12:43:18;;;;;;;;;;;;;;;11.51;100.00;96625.31;5103371;28;19924;-69
2023/04/01 12:45:49;;;;;;;;;;;;;;;11.54;100.00;96627.41;5104119;28;19987;-70
2023/04/01 12:48:34;;;;;;;;;;;;;;;11.55;100.00;96636.97;5119018;28;19924;-70
2023/04/01 12:51:28;;;;;;;;;;;;;;;11.50;100.00;96624.53;5100222;28;19963;-69
2023/04/01 12:54:04;;;;;;;;;;;;;;;11.52;100.00;96624.22;5074081;28;19924;-68
2023/04/01 12:56:40;;;;;;;;;;;;;;;11.62;100.00;96632.03;5114903;28;19924;-69
2023/04/01 12:59:21;;;;;;;;;;;;;;;11.60;100.00;96639.56;5124601;28;19991;-70
2023/04/01 13:02:00;;;;;;;;;;;;;;;11.45;100.00;96619.28;5119308;28;20026;-68
2023/04/01 13:04:41;;;;;;;;;;;;;;;11.45;100.00;96635.31;5110372;28;19935;-71
2023/04/01 13:07:20;;;;;;;;;;;;;;;11.44;100.00;96633.75;5108703;27;19931;-69
2023/04/01 13:09:51;;;;;;;;;;;;;;;11.38;100.00;96632.28;5110502;28;19924;-67
2023/04/01 13:12:29;;;;;;;;;;;;;;;11.38;100.00;96632.28;5100556;28;19975;-69